sensor_id;sensor_type;location;lat;lon;timestamp;P1;durP1;ratioP1;P2;durP2;ratioP2
20443;SDS011;10381;53.730;10.010;2022-10-16T00:03:36;233.48;;;210.15;;
20443;SDS011;10381;53.730;10.010;2022-10-16T00:07:36;242.52;;;218.30;;
20443;SDS011;10381;53.730;10.010;2022-10-16T00:11:37;217.17;;;195.20;;
20443;SDS011;10381;53.730;10.010;2022-10-16T00:15:39;214.48;;;192.80;;
20443;SDS011;10381;53.730;10.010;2022-10-16T00:19:39;217.07;;;195.00;;
20443;SDS011;10381;53.730;10.010;2022-10-16T00:23:40;215.50;;;193.47;;
20443;SDS011;10381;53.730;10.010;2022-10-16T00:27:40;221.85;;;199.80;;
20443;SDS011;10381;53.730;10.010;2022-10-16T00:31:40;226.87;;;203.90;;
20443;SDS011;10381;53.730;10.010;2022-10-16T00:35:41;217.87;;;195.67;;
20443;SDS011;10381;53.730;10.010;2022-10-16T00:39:41;206.33;;;185.60;;
20443;SDS011;10381;53.730;10.010;2022-10-16T00:47:45;217.98;;;196.73;;
20443;SDS011;10381;53.730;10.010;2022-10-16T00:51:50;166.63;;;150.05;;
20443;SDS011;10381;53.730;10.010;2022-10-16T00:55:52;168.18;;;151.82;;
20443;SDS011;10381;53.730;10.010;2022-10-16T00:59:53;146.10;;;131.80;;
20443;SDS011;10381;53.730;10.010;2022-10-16T01:03:54;159.80;;;145.00;;
20443;SDS011;10381;53.730;10.010;2022-10-16T01:08:13;161.83;;;146.00;;
20443;SDS011;10381;53.730;10.010;2022-10-16T01:12:31;153.23;;;138.40;;
20443;SDS011;10381;53.730;10.010;2022-10-16T01:16:40;131.50;;;119.05;;
20443;SDS011;10381;53.730;10.010;2022-10-16T01:20:49;129.70;;;117.95;;
20443;SDS011;10381;53.730;10.010;2022-10-16T01:24:53;128.73;;;117.35;;
20443;SDS011;10381;53.730;10.010;2022-10-16T01:29:03;125.30;;;113.50;;
20443;SDS011;10381;53.730;10.010;2022-10-16T01:33:24;123.30;;;112.40;;
20443;SDS011;10381;53.730;10.010;2022-10-16T01:37:40;115.65;;;105.25;;
20443;SDS011;10381;53.730;10.010;2022-10-16T01:41:51;107.20;;;98.05;;
20443;SDS011;10381;53.730;10.010;2022-10-16T01:45:59;116.57;;;105.57;;
20443;SDS011;10381;53.730;10.010;2022-10-16T01:50:02;126.10;;;115.40;;
20443;SDS011;10381;53.730;10.010;2022-10-16T01:54:05;121.43;;;110.63;;
20443;SDS011;10381;53.730;10.010;2022-10-16T01:58:08;123.00;;;112.40;;
20443;SDS011;10381;53.730;10.010;2022-10-16T02:02:10;134.15;;;122.28;;
20443;SDS011;10381;53.730;10.010;2022-10-16T02:06:12;137.77;;;125.22;;
20443;SDS011;10381;53.730;10.010;2022-10-16T02:10:13;127.73;;;116.37;;
20443;SDS011;10381;53.730;10.010;2022-10-16T02:14:13;131.07;;;119.47;;
20443;SDS011;10381;53.730;10.010;2022-10-16T02:18:13;117.93;;;107.40;;
20443;SDS011;10381;53.730;10.010;2022-10-16T02:30:45;131.65;;;120.00;;
20443;SDS011;10381;53.730;10.010;2022-10-16T02:34:50;118.05;;;107.63;;
20443;SDS011;10381;53.730;10.010;2022-10-16T02:38:51;120.22;;;109.78;;
20443;SDS011;10381;53.730;10.010;2022-10-16T02:42:53;126.28;;;114.68;;
20443;SDS011;10381;53.730;10.010;2022-10-16T02:46:54;113.30;;;103.28;;
20443;SDS011;10381;53.730;10.010;2022-10-16T02:50:54;131.50;;;120.00;;
20443;SDS011;10381;53.730;10.010;2022-10-16T02:54:55;108.68;;;99.43;;
20443;SDS011;10381;53.730;10.010;2022-10-16T02:58:55;118.53;;;108.53;;
20443;SDS011;10381;53.730;10.010;2022-10-16T03:02:55;119.60;;;108.88;;
20443;SDS011;10381;53.730;10.010;2022-10-16T03:06:56;118.77;;;108.63;;
20443;SDS011;10381;53.730;10.010;2022-10-16T03:10:56;120.00;;;109.63;;
20443;SDS011;10381;53.730;10.010;2022-10-16T03:14:56;123.93;;;112.93;;
20443;SDS011;10381;53.730;10.010;2022-10-16T03:18:57;119.50;;;109.10;;
20443;SDS011;10381;53.730;10.010;2022-10-16T03:22:57;137.87;;;125.60;;
20443;SDS011;10381;53.730;10.010;2022-10-16T03:26:58;123.05;;;112.25;;
20443;SDS011;10381;53.730;10.010;2022-10-16T03:30:58;132.97;;;120.93;;
20443;SDS011;10381;53.730;10.010;2022-10-16T03:34:58;121.65;;;109.28;;
20443;SDS011;10381;53.730;10.010;2022-10-16T03:38:59;127.73;;;116.40;;
20443;SDS011;10381;53.730;10.010;2022-10-16T03:42:59;134.73;;;122.87;;
20443;SDS011;10381;53.730;10.010;2022-10-16T03:46:59;120.07;;;109.57;;
20443;SDS011;10381;53.730;10.010;2022-10-16T03:50:59;135.73;;;123.37;;
20443;SDS011;10381;53.730;10.010;2022-10-16T03:55:01;128.03;;;116.73;;
20443;SDS011;10381;53.730;10.010;2022-10-16T03:59:03;130.48;;;118.57;;
20443;SDS011;10381;53.730;10.010;2022-10-16T04:03:03;112.47;;;102.53;;
20443;SDS011;10381;53.730;10.010;2022-10-16T04:07:03;127.83;;;116.47;;
20443;SDS011;10381;53.730;10.010;2022-10-16T04:11:04;119.70;;;109.35;;
20443;SDS011;10381;53.730;10.010;2022-10-16T04:15:04;106.22;;;97.13;;
20443;SDS011;10381;53.730;10.010;2022-10-16T04:19:05;115.03;;;105.28;;
20443;SDS011;10381;53.730;10.010;2022-10-16T04:23:05;99.38;;;90.75;;
20443;SDS011;10381;53.730;10.010;2022-10-16T04:27:05;113.77;;;104.10;;
20443;SDS011;10381;53.730;10.010;2022-10-16T04:31:06;123.30;;;112.63;;
20443;SDS011;10381;53.730;10.010;2022-10-16T04:35:07;109.50;;;100.18;;
20443;SDS011;10381;53.730;10.010;2022-10-16T04:39:07;116.97;;;106.85;;
20443;SDS011;10381;53.730;10.010;2022-10-16T04:43:08;109.20;;;99.25;;
20443;SDS011;10381;53.730;10.010;2022-10-16T04:47:09;110.78;;;101.28;;
20443;SDS011;10381;53.730;10.010;2022-10-16T04:51:09;101.67;;;92.90;;
20443;SDS011;10381;53.730;10.010;2022-10-16T04:55:09;125.65;;;114.63;;
20443;SDS011;10381;53.730;10.010;2022-10-16T04:59:10;112.75;;;102.53;;
20443;SDS011;10381;53.730;10.010;2022-10-16T05:03:10;130.80;;;119.40;;
20443;SDS011;10381;53.730;10.010;2022-10-16T05:07:10;106.03;;;96.83;;
20443;SDS011;10381;53.730;10.010;2022-10-16T05:11:11;103.47;;;94.83;;
20443;SDS011;10381;53.730;10.010;2022-10-16T05:15:11;90.53;;;82.95;;
20443;SDS011;10381;53.730;10.010;2022-10-16T05:19:11;95.32;;;86.97;;
20443;SDS011;10381;53.730;10.010;2022-10-16T05:23:12;98.00;;;89.07;;
20443;SDS011;10381;53.730;10.010;2022-10-16T05:27:12;100.45;;;91.60;;
20443;SDS011;10381;53.730;10.010;2022-10-16T05:31:18;95.40;;;87.22;;
20443;SDS011;10381;53.730;10.010;2022-10-16T05:35:19;91.47;;;83.90;;
20443;SDS011;10381;53.730;10.010;2022-10-16T05:39:20;85.65;;;78.68;;
20443;SDS011;10381;53.730;10.010;2022-10-16T05:43:20;95.63;;;87.37;;
20443;SDS011;10381;53.730;10.010;2022-10-16T05:47:20;101.63;;;93.33;;
20443;SDS011;10381;53.730;10.010;2022-10-16T05:51:21;95.32;;;87.47;;
20443;SDS011;10381;53.730;10.010;2022-10-16T05:55:21;99.50;;;90.57;;
20443;SDS011;10381;53.730;10.010;2022-10-16T05:59:21;108.87;;;98.97;;
20443;SDS011;10381;53.730;10.010;2022-10-16T06:03:21;107.73;;;98.33;;
20443;SDS011;10381;53.730;10.010;2022-10-16T06:07:22;123.97;;;112.68;;
20443;SDS011;10381;53.730;10.010;2022-10-16T06:11:27;108.53;;;99.03;;
20443;SDS011;10381;53.730;10.010;2022-10-16T06:15:28;126.00;;;113.15;;
20443;SDS011;10381;53.730;10.010;2022-10-16T06:19:29;119.75;;;109.18;;
20443;SDS011;10381;53.730;10.010;2022-10-16T06:23:29;111.75;;;102.30;;
20443;SDS011;10381;53.730;10.010;2022-10-16T06:27:29;115.83;;;105.53;;
20443;SDS011;10381;53.730;10.010;2022-10-16T06:31:30;111.77;;;102.00;;
20443;SDS011;10381;53.730;10.010;2022-10-16T06:35:33;98.85;;;90.15;;
20443;SDS011;10381;53.730;10.010;2022-10-16T06:39:33;103.03;;;94.27;;
20443;SDS011;10381;53.730;10.010;2022-10-16T06:43:33;85.87;;;78.50;;
20443;SDS011;10381;53.730;10.010;2022-10-16T06:47:36;105.70;;;96.90;;
20443;SDS011;10381;53.730;10.010;2022-10-16T06:51:37;85.63;;;78.47;;
20443;SDS011;10381;53.730;10.010;2022-10-16T06:55:40;92.95;;;85.38;;
20443;SDS011;10381;53.730;10.010;2022-10-16T06:59:41;79.30;;;72.70;;
20443;SDS011;10381;53.730;10.010;2022-10-16T07:03:41;76.70;;;70.20;;
20443;SDS011;10381;53.730;10.010;2022-10-16T07:07:43;59.83;;;54.38;;
20443;SDS011;10381;53.730;10.010;2022-10-16T07:11:43;45.37;;;41.10;;
20443;SDS011;10381;53.730;10.010;2022-10-16T07:15:43;42.77;;;39.10;;
20443;SDS011;10381;53.730;10.010;2022-10-16T07:19:44;38.97;;;35.07;;
20443;SDS011;10381;53.730;10.010;2022-10-16T07:23:44;40.03;;;36.00;;
20443;SDS011;10381;53.730;10.010;2022-10-16T07:27:45;42.00;;;38.03;;
20443;SDS011;10381;53.730;10.010;2022-10-16T07:31:46;32.55;;;29.45;;
20443;SDS011;10381;53.730;10.010;2022-10-16T07:35:48;28.45;;;25.90;;
20443;SDS011;10381;53.730;10.010;2022-10-16T07:39:52;28.60;;;26.02;;
20443;SDS011;10381;53.730;10.010;2022-10-16T07:43:53;30.87;;;28.27;;
20443;SDS011;10381;53.730;10.010;2022-10-16T07:47:55;37.63;;;34.20;;
20443;SDS011;10381;53.730;10.010;2022-10-16T07:51:55;39.97;;;36.55;;
20443;SDS011;10381;53.730;10.010;2022-10-16T07:55:58;38.30;;;34.77;;
20443;SDS011;10381;53.730;10.010;2022-10-16T08:00:03;38.65;;;35.13;;
20443;SDS011;10381;53.730;10.010;2022-10-16T08:04:04;36.28;;;32.88;;
20443;SDS011;10381;53.730;10.010;2022-10-16T08:08:05;40.72;;;36.92;;
20443;SDS011;10381;53.730;10.010;2022-10-16T08:12:05;48.15;;;43.72;;
20443;SDS011;10381;53.730;10.010;2022-10-16T08:16:06;51.00;;;46.63;;
20443;SDS011;10381;53.730;10.010;2022-10-16T08:20:08;45.88;;;41.67;;
20443;SDS011;10381;53.730;10.010;2022-10-16T08:24:09;47.22;;;42.65;;
20443;SDS011;10381;53.730;10.010;2022-10-16T08:28:10;43.97;;;39.83;;
20443;SDS011;10381;53.730;10.010;2022-10-16T08:32:10;37.97;;;34.30;;
20443;SDS011;10381;53.730;10.010;2022-10-16T08:36:11;32.30;;;29.40;;
20443;SDS011;10381;53.730;10.010;2022-10-16T08:40:30;36.80;;;33.20;;
20443;SDS011;10381;53.730;10.010;2022-10-16T08:48:51;40.08;;;35.97;;
20443;SDS011;10381;53.730;10.010;2022-10-16T08:52:54;27.10;;;24.52;;
20443;SDS011;10381;53.730;10.010;2022-10-16T08:56:56;25.15;;;22.60;;
20443;SDS011;10381;53.730;10.010;2022-10-16T09:01:01;20.73;;;18.67;;
20443;SDS011;10381;53.730;10.010;2022-10-16T09:14:04;19.63;;;17.98;;
20443;SDS011;10381;53.730;10.010;2022-10-16T09:18:20;23.13;;;20.98;;
20443;SDS011;10381;53.730;10.010;2022-10-16T09:22:24;19.48;;;17.58;;
20443;SDS011;10381;53.730;10.010;2022-10-16T09:26:28;17.17;;;15.57;;
20443;SDS011;10381;53.730;10.010;2022-10-16T09:30:29;13.97;;;12.57;;
20443;SDS011;10381;53.730;10.010;2022-10-16T09:34:36;12.85;;;11.65;;
20443;SDS011;10381;53.730;10.010;2022-10-16T09:38:40;14.13;;;12.15;;
20443;SDS011;10381;53.730;10.010;2022-10-16T09:42:41;12.37;;;11.07;;
20443;SDS011;10381;53.730;10.010;2022-10-16T09:46:41;13.05;;;11.15;;
20443;SDS011;10381;53.730;10.010;2022-10-16T09:50:41;12.77;;;10.60;;
20443;SDS011;10381;53.730;10.010;2022-10-16T09:54:49;18.20;;;11.53;;
20443;SDS011;10381;53.730;10.010;2022-10-16T09:58:55;12.00;;;10.43;;
20443;SDS011;10381;53.730;10.010;2022-10-16T10:02:57;12.55;;;10.02;;
20443;SDS011;10381;53.730;10.010;2022-10-16T10:06:57;10.88;;;9.93;;
20443;SDS011;10381;53.730;10.010;2022-10-16T10:10:58;12.18;;;10.27;;
20443;SDS011;10381;53.730;10.010;2022-10-16T10:15:03;11.50;;;10.18;;
20443;SDS011;10381;53.730;10.010;2022-10-16T10:19:12;10.85;;;9.73;;
20443;SDS011;10381;53.730;10.010;2022-10-16T10:23:21;12.38;;;9.90;;
20443;SDS011;10381;53.730;10.010;2022-10-16T10:27:29;20.52;;;11.38;;
20443;SDS011;10381;53.730;10.010;2022-10-16T10:31:56;12.07;;;10.38;;
20443;SDS011;10381;53.730;10.010;2022-10-16T10:40:42;11.45;;;9.95;;
20443;SDS011;10381;53.730;10.010;2022-10-16T10:44:56;10.25;;;9.35;;
20443;SDS011;10381;53.730;10.010;2022-10-16T10:53:36;13.82;;;9.20;;
20443;SDS011;10381;53.730;10.010;2022-10-16T11:02:18;11.75;;;10.75;;
20443;SDS011;10381;53.730;10.010;2022-10-16T11:06:28;10.20;;;9.25;;
20443;SDS011;10381;53.730;10.010;2022-10-16T11:10:44;10.20;;;9.20;;
20443;SDS011;10381;53.730;10.010;2022-10-16T11:14:47;10.05;;;9.15;;
20443;SDS011;10381;53.730;10.010;2022-10-16T11:19:14;9.60;;;7.75;;
20443;SDS011;10381;53.730;10.010;2022-10-16T11:27:34;9.77;;;8.70;;
20443;SDS011;10381;53.730;10.010;2022-10-16T11:31:41;10.18;;;7.22;;
20443;SDS011;10381;53.730;10.010;2022-10-16T11:39:58;10.05;;;8.32;;
20443;SDS011;10381;53.730;10.010;2022-10-16T11:44:17;7.43;;;6.70;;
20443;SDS011;10381;53.730;10.010;2022-10-16T11:48:33;8.30;;;6.93;;
20443;SDS011;10381;53.730;10.010;2022-10-16T11:52:45;11.23;;;8.10;;
20443;SDS011;10381;53.730;10.010;2022-10-16T11:57:02;8.75;;;7.95;;
20443;SDS011;10381;53.730;10.010;2022-10-16T12:01:19;8.70;;;7.90;;
20443;SDS011;10381;53.730;10.010;2022-10-16T12:09:45;8.60;;;7.78;;
20443;SDS011;10381;53.730;10.010;2022-10-16T12:13:46;7.95;;;7.15;;
20443;SDS011;10381;53.730;10.010;2022-10-16T12:17:48;14.45;;;8.73;;
20443;SDS011;10381;53.730;10.010;2022-10-16T12:21:50;8.23;;;7.50;;
20443;SDS011;10381;53.730;10.010;2022-10-16T12:25:56;7.80;;;7.13;;
20443;SDS011;10381;53.730;10.010;2022-10-16T12:30:02;11.35;;;6.63;;
20443;SDS011;10381;53.730;10.010;2022-10-16T12:34:14;7.55;;;6.88;;
20443;SDS011;10381;53.730;10.010;2022-10-16T12:38:28;7.60;;;6.32;;
20443;SDS011;10381;53.730;10.010;2022-10-16T12:42:35;7.03;;;6.38;;
20443;SDS011;10381;53.730;10.010;2022-10-16T12:46:37;6.43;;;5.50;;
20443;SDS011;10381;53.730;10.010;2022-10-16T12:50:39;7.55;;;6.03;;
20443;SDS011;10381;53.730;10.010;2022-10-16T12:54:40;6.15;;;5.20;;
20443;SDS011;10381;53.730;10.010;2022-10-16T12:58:55;8.73;;;5.20;;
20443;SDS011;10381;53.730;10.010;2022-10-16T13:20:46;11.23;;;5.10;;
20443;SDS011;10381;53.730;10.010;2022-10-16T13:29:21;5.32;;;4.82;;
20443;SDS011;10381;53.730;10.010;2022-10-16T13:37:32;14.73;;;4.68;;
20443;SDS011;10381;53.730;10.010;2022-10-16T13:41:32;5.03;;;4.40;;
20443;SDS011;10381;53.730;10.010;2022-10-16T13:45:32;9.10;;;4.75;;
20443;SDS011;10381;53.730;10.010;2022-10-16T13:49:33;12.57;;;4.27;;
20443;SDS011;10381;53.730;10.010;2022-10-16T13:53:33;8.73;;;4.30;;
20443;SDS011;10381;53.730;10.010;2022-10-16T13:57:35;10.07;;;4.93;;
20443;SDS011;10381;53.730;10.010;2022-10-16T14:01:42;11.20;;;4.90;;
20443;SDS011;10381;53.730;10.010;2022-10-16T14:05:45;8.98;;;5.15;;
20443;SDS011;10381;53.730;10.010;2022-10-16T14:09:49;5.97;;;4.78;;
20443;SDS011;10381;53.730;10.010;2022-10-16T14:13:51;15.57;;;4.50;;
20443;SDS011;10381;53.730;10.010;2022-10-16T14:17:53;6.20;;;4.75;;
20443;SDS011;10381;53.730;10.010;2022-10-16T14:21:53;4.78;;;4.35;;
20443;SDS011;10381;53.730;10.010;2022-10-16T14:25:54;7.38;;;4.47;;
20443;SDS011;10381;53.730;10.010;2022-10-16T14:34:24;7.43;;;4.30;;
20443;SDS011;10381;53.730;10.010;2022-10-16T14:38:30;12.25;;;4.93;;
20443;SDS011;10381;53.730;10.010;2022-10-16T14:42:32;4.82;;;4.30;;
20443;SDS011;10381;53.730;10.010;2022-10-16T14:46:36;13.07;;;4.43;;
20443;SDS011;10381;53.730;10.010;2022-10-16T14:50:38;10.43;;;5.20;;
20443;SDS011;10381;53.730;10.010;2022-10-16T14:54:38;4.73;;;4.13;;
20443;SDS011;10381;53.730;10.010;2022-10-16T14:58:38;4.60;;;4.07;;
20443;SDS011;10381;53.730;10.010;2022-10-16T15:02:39;5.07;;;4.00;;
20443;SDS011;10381;53.730;10.010;2022-10-16T15:06:39;12.50;;;5.10;;
20443;SDS011;10381;53.730;10.010;2022-10-16T15:10:41;5.45;;;4.80;;
20443;SDS011;10381;53.730;10.010;2022-10-16T15:14:43;5.03;;;4.50;;
20443;SDS011;10381;53.730;10.010;2022-10-16T15:18:43;7.50;;;4.93;;
20443;SDS011;10381;53.730;10.010;2022-10-16T15:22:44;7.30;;;5.43;;
20443;SDS011;10381;53.730;10.010;2022-10-16T15:26:44;9.00;;;4.93;;
20443;SDS011;10381;53.730;10.010;2022-10-16T15:30:46;6.10;;;4.82;;
20443;SDS011;10381;53.730;10.010;2022-10-16T15:34:49;6.88;;;5.25;;
20443;SDS011;10381;53.730;10.010;2022-10-16T15:38:49;7.07;;;4.93;;
20443;SDS011;10381;53.730;10.010;2022-10-16T15:42:49;5.50;;;4.97;;
20443;SDS011;10381;53.730;10.010;2022-10-16T15:46:49;11.98;;;5.40;;
20443;SDS011;10381;53.730;10.010;2022-10-16T15:50:50;12.73;;;7.10;;
20443;SDS011;10381;53.730;10.010;2022-10-16T15:54:50;10.30;;;6.60;;
20443;SDS011;10381;53.730;10.010;2022-10-16T15:58:53;7.95;;;6.53;;
20443;SDS011;10381;53.730;10.010;2022-10-16T16:02:54;23.17;;;11.95;;
20443;SDS011;10381;53.730;10.010;2022-10-16T16:06:54;15.30;;;9.02;;
20443;SDS011;10381;53.730;10.010;2022-10-16T16:10:58;18.10;;;7.50;;
20443;SDS011;10381;53.730;10.010;2022-10-16T16:14:59;9.98;;;6.85;;
20443;SDS011;10381;53.730;10.010;2022-10-16T16:18:59;22.07;;;8.67;;
20443;SDS011;10381;53.730;10.010;2022-10-16T16:23:00;17.30;;;9.07;;
20443;SDS011;10381;53.730;10.010;2022-10-16T16:27:00;12.20;;;11.10;;
20443;SDS011;10381;53.730;10.010;2022-10-16T16:31:00;14.93;;;13.70;;
20443;SDS011;10381;53.730;10.010;2022-10-16T16:35:01;25.25;;;17.55;;
20443;SDS011;10381;53.730;10.010;2022-10-16T16:39:02;27.85;;;24.05;;
20443;SDS011;10381;53.730;10.010;2022-10-16T16:43:03;34.22;;;30.35;;
20443;SDS011;10381;53.730;10.010;2022-10-16T16:47:04;49.28;;;34.63;;
20443;SDS011;10381;53.730;10.010;2022-10-16T16:51:06;44.85;;;40.47;;
20443;SDS011;10381;53.730;10.010;2022-10-16T16:55:09;51.03;;;46.33;;
20443;SDS011;10381;53.730;10.010;2022-10-16T16:59:11;57.33;;;51.73;;
20443;SDS011;10381;53.730;10.010;2022-10-16T17:03:16;63.55;;;57.88;;
20443;SDS011;10381;53.730;10.010;2022-10-16T17:07:17;75.43;;;69.07;;
20443;SDS011;10381;53.730;10.010;2022-10-16T17:11:18;81.60;;;74.77;;
20443;SDS011;10381;53.730;10.010;2022-10-16T17:15:20;90.57;;;82.47;;
20443;SDS011;10381;53.730;10.010;2022-10-16T17:19:20;103.00;;;93.80;;
20443;SDS011;10381;53.730;10.010;2022-10-16T17:23:21;117.28;;;107.13;;
20443;SDS011;10381;53.730;10.010;2022-10-16T17:27:21;142.05;;;124.68;;
20443;SDS011;10381;53.730;10.010;2022-10-16T17:31:23;140.38;;;123.70;;
20443;SDS011;10381;53.730;10.010;2022-10-16T17:35:38;151.27;;;135.38;;
20443;SDS011;10381;53.730;10.010;2022-10-16T17:39:43;153.10;;;137.13;;
20443;SDS011;10381;53.730;10.010;2022-10-16T17:43:43;146.40;;;132.27;;
20443;SDS011;10381;53.730;10.010;2022-10-16T17:47:44;135.65;;;123.07;;
20443;SDS011;10381;53.730;10.010;2022-10-16T17:51:44;141.00;;;127.53;;
20443;SDS011;10381;53.730;10.010;2022-10-16T17:55:45;164.75;;;148.80;;
20443;SDS011;10381;53.730;10.010;2022-10-16T17:59:45;163.23;;;147.53;;
20443;SDS011;10381;53.730;10.010;2022-10-16T18:03:49;157.43;;;142.50;;
20443;SDS011;10381;53.730;10.010;2022-10-16T18:07:51;163.27;;;148.00;;
20443;SDS011;10381;53.730;10.010;2022-10-16T18:11:51;182.05;;;165.40;;
20443;SDS011;10381;53.730;10.010;2022-10-16T18:16:02;169.50;;;153.35;;
20443;SDS011;10381;53.730;10.010;2022-10-16T18:20:05;166.68;;;151.90;;
20443;SDS011;10381;53.730;10.010;2022-10-16T18:24:06;143.75;;;130.70;;
20443;SDS011;10381;53.730;10.010;2022-10-16T18:28:06;163.18;;;148.38;;
20443;SDS011;10381;53.730;10.010;2022-10-16T18:32:07;174.57;;;158.00;;
20443;SDS011;10381;53.730;10.010;2022-10-16T18:36:08;179.18;;;162.90;;
20443;SDS011;10381;53.730;10.010;2022-10-16T18:40:09;198.98;;;180.88;;
20443;SDS011;10381;53.730;10.010;2022-10-16T18:44:09;207.25;;;189.18;;
20443;SDS011;10381;53.730;10.010;2022-10-16T18:48:10;187.38;;;170.35;;
20443;SDS011;10381;53.730;10.010;2022-10-16T18:52:10;201.17;;;182.93;;
20443;SDS011;10381;53.730;10.010;2022-10-16T18:56:11;202.33;;;183.80;;
20443;SDS011;10381;53.730;10.010;2022-10-16T19:00:13;208.80;;;189.93;;
20443;SDS011;10381;53.730;10.010;2022-10-16T19:04:15;200.95;;;181.75;;
20443;SDS011;10381;53.730;10.010;2022-10-16T19:08:16;213.48;;;193.70;;
20443;SDS011;10381;53.730;10.010;2022-10-16T19:12:17;209.77;;;190.50;;
20443;SDS011;10381;53.730;10.010;2022-10-16T19:16:18;228.80;;;207.93;;
20443;SDS011;10381;53.730;10.010;2022-10-16T19:20:23;242.52;;;220.63;;
20443;SDS011;10381;53.730;10.010;2022-10-16T19:24:23;232.40;;;211.90;;
20443;SDS011;10381;53.730;10.010;2022-10-16T19:28:24;249.07;;;227.10;;
20443;SDS011;10381;53.730;10.010;2022-10-16T19:32:24;240.77;;;219.23;;
20443;SDS011;10381;53.730;10.010;2022-10-16T19:36:25;229.53;;;208.80;;
20443;SDS011;10381;53.730;10.010;2022-10-16T19:40:27;247.57;;;224.20;;
20443;SDS011;10381;53.730;10.010;2022-10-16T19:44:28;239.02;;;218.00;;
20443;SDS011;10381;53.730;10.010;2022-10-16T19:48:28;249.70;;;227.95;;
20443;SDS011;10381;53.730;10.010;2022-10-16T19:52:28;247.93;;;225.67;;
20443;SDS011;10381;53.730;10.010;2022-10-16T19:56:29;249.90;;;227.57;;
20443;SDS011;10381;53.730;10.010;2022-10-16T20:00:31;256.33;;;233.82;;
20443;SDS011;10381;53.730;10.010;2022-10-16T20:04:31;250.10;;;227.23;;
20443;SDS011;10381;53.730;10.010;2022-10-16T20:08:32;252.40;;;229.73;;
20443;SDS011;10381;53.730;10.010;2022-10-16T20:12:33;259.17;;;235.82;;
20443;SDS011;10381;53.730;10.010;2022-10-16T20:16:33;243.80;;;222.17;;
20443;SDS011;10381;53.730;10.010;2022-10-16T20:20:40;255.55;;;232.52;;
20443;SDS011;10381;53.730;10.010;2022-10-16T20:24:42;261.55;;;238.05;;
20443;SDS011;10381;53.730;10.010;2022-10-16T20:28:42;261.60;;;237.68;;
20443;SDS011;10381;53.730;10.010;2022-10-16T20:32:43;263.90;;;240.55;;
20443;SDS011;10381;53.730;10.010;2022-10-16T20:36:45;255.93;;;232.40;;
20443;SDS011;10381;53.730;10.010;2022-10-16T20:40:46;258.33;;;235.20;;
20443;SDS011;10381;53.730;10.010;2022-10-16T20:44:47;252.05;;;229.43;;
20443;SDS011;10381;53.730;10.010;2022-10-16T20:48:47;255.30;;;231.90;;
20443;SDS011;10381;53.730;10.010;2022-10-16T20:52:48;263.65;;;239.95;;
20443;SDS011;10381;53.730;10.010;2022-10-16T20:56:48;269.63;;;245.48;;
20443;SDS011;10381;53.730;10.010;2022-10-16T21:00:51;267.35;;;242.95;;
20443;SDS011;10381;53.730;10.010;2022-10-16T21:04:52;272.30;;;247.33;;
20443;SDS011;10381;53.730;10.010;2022-10-16T21:08:53;274.73;;;249.75;;
20443;SDS011;10381;53.730;10.010;2022-10-16T21:12:54;269.88;;;245.25;;
20443;SDS011;10381;53.730;10.010;2022-10-16T21:16:54;262.00;;;237.68;;
20443;SDS011;10381;53.730;10.010;2022-10-16T21:20:54;252.70;;;227.10;;
20443;SDS011;10381;53.730;10.010;2022-10-16T21:24:55;328.58;;;282.90;;
20443;SDS011;10381;53.730;10.010;2022-10-16T21:29:03;238.95;;;215.18;;
20443;SDS011;10381;53.730;10.010;2022-10-16T21:33:05;246.93;;;223.18;;
20443;SDS011;10381;53.730;10.010;2022-10-16T21:37:06;237.97;;;215.80;;
20443;SDS011;10381;53.730;10.010;2022-10-16T21:41:17;229.77;;;208.43;;
20443;SDS011;10381;53.730;10.010;2022-10-16T21:45:17;243.00;;;220.55;;
20443;SDS011;10381;53.730;10.010;2022-10-16T21:49:17;236.70;;;213.90;;
20443;SDS011;10381;53.730;10.010;2022-10-16T21:53:18;243.77;;;220.77;;
20443;SDS011;10381;53.730;10.010;2022-10-16T21:57:18;243.70;;;220.07;;
20443;SDS011;10381;53.730;10.010;2022-10-16T22:01:20;243.77;;;220.67;;
20443;SDS011;10381;53.730;10.010;2022-10-16T22:05:22;238.50;;;216.40;;
20443;SDS011;10381;53.730;10.010;2022-10-16T22:09:22;242.77;;;220.20;;
20443;SDS011;10381;53.730;10.010;2022-10-16T22:13:23;246.80;;;224.03;;
20443;SDS011;10381;53.730;10.010;2022-10-16T22:17:23;238.33;;;216.17;;
20443;SDS011;10381;53.730;10.010;2022-10-16T22:21:23;246.47;;;222.40;;
20443;SDS011;10381;53.730;10.010;2022-10-16T22:25:25;234.13;;;211.77;;
20443;SDS011;10381;53.730;10.010;2022-10-16T22:29:25;245.53;;;222.10;;
20443;SDS011;10381;53.730;10.010;2022-10-16T22:33:25;262.73;;;238.20;;
20443;SDS011;10381;53.730;10.010;2022-10-16T22:37:26;249.43;;;225.80;;
20443;SDS011;10381;53.730;10.010;2022-10-16T22:41:26;257.33;;;232.97;;
20443;SDS011;10381;53.730;10.010;2022-10-16T22:45:26;255.77;;;230.57;;
20443;SDS011;10381;53.730;10.010;2022-10-16T22:49:26;242.80;;;219.33;;
20443;SDS011;10381;53.730;10.010;2022-10-16T22:53:27;236.87;;;213.23;;
20443;SDS011;10381;53.730;10.010;2022-10-16T22:57:27;240.55;;;217.57;;
20443;SDS011;10381;53.730;10.010;2022-10-16T23:01:29;233.53;;;210.13;;
20443;SDS011;10381;53.730;10.010;2022-10-16T23:05:31;226.88;;;204.18;;
20443;SDS011;10381;53.730;10.010;2022-10-16T23:09:31;241.80;;;218.85;;
20443;SDS011;10381;53.730;10.010;2022-10-16T23:13:34;237.83;;;214.90;;
20443;SDS011;10381;53.730;10.010;2022-10-16T23:17:35;249.10;;;225.32;;
20443;SDS011;10381;53.730;10.010;2022-10-16T23:21:36;232.40;;;210.20;;
20443;SDS011;10381;53.730;10.010;2022-10-16T23:25:36;242.03;;;218.77;;
20443;SDS011;10381;53.730;10.010;2022-10-16T23:29:43;253.77;;;228.85;;
20443;SDS011;10381;53.730;10.010;2022-10-16T23:33:43;266.33;;;240.37;;
20443;SDS011;10381;53.730;10.010;2022-10-16T23:37:44;310.80;;;281.10;;
20443;SDS011;10381;53.730;10.010;2022-10-16T23:41:44;314.97;;;284.23;;
20443;SDS011;10381;53.730;10.010;2022-10-16T23:45:44;324.10;;;292.07;;
20443;SDS011;10381;53.730;10.010;2022-10-16T23:49:45;328.47;;;295.83;;
20443;SDS011;10381;53.730;10.010;2022-10-16T23:53:45;368.53;;;333.20;;
20443;SDS011;10381;53.730;10.010;2022-10-16T23:57:45;406.60;;;367.90;;
